Rochester, Minnesota
Current Conditions -  °F | °C
As of 8:54 PM on Wednesday 22 Oct 2014 (Local Time) from KRST Reporting Station
Overcast Overcast  
Wind Chill: 53°   Ceiling: 7500
Heat Index: 53°   Visibility: 10mi
Dew Point: 38°   Wind: 15mph
Humidity: 57%   Direction: 160°SSE
Pressure: 30.11"   Gusts: 25mph
Location:  44.02°N, 92.46°W
Report Text: KRST 230154Z 16013G22KT 10SM SCT060 OVC075 12/03 A3011 RMK AO2 SLP204 T01170033
Loading
Personal Weather Stations






























Interactive Weather Map New forecast layout! Learn more

10-Day Weather Forecast

Advertisements
Track Severe Weather on mobile